Terminal Aerodrome Forecast
Issued by NWS

Home | Current Version | Previous Version | Graphics & Text | Print | Product List | Glossary On
Versions: 1 2 3 4 5 6 7 8 9 10 11 12 13 14 15 16 17 18
225
FTUS43 KMPX 262339
TAFAXN
TAF
KAXN 262339Z 2700/2724 24007KT P6SM FEW050 OVC120
     FM270600 05006KT 6SM -SHRA VCTS OVC070CB
     FM271100 03007KT P6SM SCT020 OVC040 PROB30 2714/2720 4SM TSRA
      BR OVC018CB=

USA.gov is the U.S. government's official web portal to all federal, state and local government web resources and services.